createdAt,value
2023-04-27T00:01:23.835Z,10.40
2023-04-27T00:03:51.944Z,12.15
2023-04-27T00:06:30.351Z,11.55
2023-04-27T00:08:57.611Z,9.05
2023-04-27T00:11:25.120Z,9.18
2023-04-27T00:13:52.606Z,10.73
2023-04-27T00:16:21.817Z,8.75
2023-04-27T00:18:49.133Z,9.77
2023-04-27T00:21:16.744Z,8.95
2023-04-27T00:23:44.401Z,9.73
2023-04-27T00:26:12.019Z,11.02
2023-04-27T00:28:39.252Z,12.10
2023-04-27T00:31:06.528Z,12.95
2023-04-27T00:33:36.321Z,11.55
2023-04-27T00:36:03.681Z,11.07
2023-04-27T00:38:31.714Z,13.32
2023-04-27T00:41:02.622Z,13.30
2023-04-27T00:43:30.323Z,12.98
2023-04-27T00:45:57.866Z,12.68
2023-04-27T00:48:25.707Z,11.32
2023-04-27T00:50:54.838Z,10.63
2023-04-27T00:53:22.573Z,10.57
2023-04-27T00:55:49.798Z,11.43
2023-04-27T00:58:17.122Z,9.80
2023-04-27T01:00:44.432Z,10.85
2023-04-27T01:03:12.199Z,11.75
2023-04-27T01:05:39.661Z,11.98
2023-04-27T01:08:08.450Z,11.00
2023-04-27T01:10:36.080Z,13.00
2023-04-27T01:13:03.993Z,11.30
2023-04-27T01:15:31.602Z,10.05
2023-04-27T01:17:59.405Z,9.07
2023-04-27T01:20:30.663Z,9.57
2023-04-27T01:22:58.629Z,10.20
2023-04-27T01:25:27.361Z,10.77
2023-04-27T01:27:54.977Z,9.48
2023-04-27T01:30:25.530Z,11.27
2023-04-27T01:32:53.608Z,9.48
2023-04-27T01:35:21.008Z,12.30
2023-04-27T01:37:48.299Z,10.23
2023-04-27T01:40:16.024Z,10.38
2023-04-27T01:42:44.935Z,11.60
2023-04-27T01:45:12.229Z,8.20
2023-04-27T01:47:39.757Z,10.20
2023-04-27T01:50:07.764Z,9.73
2023-04-27T01:52:35.333Z,9.43
2023-04-27T01:55:02.749Z,9.43
2023-04-27T01:57:30.201Z,11.07
2023-04-27T01:59:59.072Z,8.82
2023-04-27T02:02:26.765Z,10.35
2023-04-27T02:04:54.412Z,11.35
2023-04-27T02:07:22.063Z,16.13
2023-04-27T02:09:49.304Z,14.45
2023-04-27T02:12:16.526Z,10.18
2023-04-27T02:14:43.726Z,9.32
2023-04-27T02:17:12.440Z,10.02
2023-04-27T02:19:39.634Z,13.13
2023-04-27T02:22:07.150Z,10.63
2023-04-27T02:24:36.738Z,9.07
2023-04-27T02:27:05.122Z,10.65
2023-04-27T02:29:32.938Z,10.38
2023-04-27T02:32:01.050Z,11.00
2023-04-27T02:34:29.869Z,12.52
2023-04-27T02:36:57.191Z,10.77
2023-04-27T02:39:24.534Z,9.73
2023-04-27T02:41:52.353Z,10.05
2023-04-27T02:44:19.969Z,10.80
2023-04-27T02:46:47.279Z,9.70
2023-04-27T02:49:16.046Z,9.68
2023-04-27T02:51:45.148Z,11.48
2023-04-27T02:54:12.432Z,9.77
2023-04-27T02:56:39.729Z,10.60
2023-04-27T02:59:07.225Z,9.80
2023-04-27T03:01:34.775Z,11.30
2023-04-27T03:04:02.742Z,8.25
2023-04-27T03:06:30.187Z,9.52
2023-04-27T03:08:59.040Z,10.07
2023-04-27T03:11:26.476Z,9.07
2023-04-27T03:13:53.731Z,10.70
2023-04-27T03:16:21.176Z,11.02
2023-04-27T03:18:48.621Z,16.23
2023-04-27T03:21:17.110Z,14.30
2023-04-27T03:23:44.376Z,15.18
2023-04-27T03:26:14.445Z,20.70
2023-04-27T03:28:42.352Z,25.60
2023-04-27T03:31:10.830Z,22.90
2023-04-27T03:33:38.809Z,21.03
2023-04-27T03:36:06.948Z,20.63
2023-04-27T03:38:35.705Z,22.30
2023-04-27T03:41:03.451Z,21.50
2023-04-27T03:43:32.096Z,18.67
2023-04-27T03:45:59.449Z,19.73
2023-04-27T03:48:27.056Z,18.90
2023-04-27T03:50:54.350Z,16.85
2023-04-27T03:53:21.582Z,23.70
2023-04-27T03:55:49.081Z,20.67
2023-04-27T03:58:17.588Z,19.93
2023-04-27T04:00:46.570Z,18.65
2023-04-27T04:03:14.466Z,17.08
2023-04-27T04:05:42.056Z,20.17
2023-04-27T04:08:09.272Z,15.95
2023-04-27T04:10:36.610Z,16.73
2023-04-27T04:13:04.035Z,16.08
2023-04-27T04:15:31.484Z,19.08
2023-04-27T04:18:00.302Z,17.33
2023-04-27T04:20:27.732Z,13.13
2023-04-27T04:22:55.441Z,15.40
2023-04-27T04:25:22.698Z,14.13
2023-04-27T04:27:50.360Z,13.23
2023-04-27T04:30:17.952Z,13.77
2023-04-27T04:32:45.435Z,13.70
2023-04-27T04:35:14.420Z,12.53
2023-04-27T04:37:41.788Z,15.35
2023-04-27T04:40:10.699Z,17.48
2023-04-27T04:42:38.195Z,15.45
2023-04-27T04:45:07.400Z,17.33
2023-04-27T04:47:35.581Z,14.10
2023-04-27T04:50:03.042Z,11.77
2023-04-27T04:52:31.733Z,13.65
2023-04-27T04:54:58.977Z,13.68
2023-04-27T04:57:26.290Z,14.15
2023-04-27T04:59:53.865Z,13.97
2023-04-27T05:02:21.470Z,17.65
2023-04-27T05:04:48.846Z,20.67
2023-04-27T05:07:20.908Z,18.17
2023-04-27T05:09:52.838Z,16.60
2023-04-27T05:12:20.406Z,12.93
2023-04-27T05:14:48.492Z,13.05
2023-04-27T05:17:16.055Z,12.23
2023-04-27T05:19:43.520Z,10.85
2023-04-27T05:22:11.184Z,10.20
2023-04-27T05:24:48.324Z,11.50
2023-04-27T05:27:17.188Z,12.55
2023-04-27T05:29:44.498Z,11.20
2023-04-27T05:32:12.098Z,11.93
2023-04-27T05:34:39.325Z,13.57
2023-04-27T05:37:06.791Z,13.50
2023-04-27T05:39:34.435Z,13.15
2023-04-27T05:42:03.132Z,11.35
2023-04-27T05:44:32.017Z,23.75
2023-04-27T05:46:59.626Z,14.52
2023-04-27T05:49:29.438Z,12.47
2023-04-27T05:52:05.298Z,14.32
2023-04-27T05:54:32.525Z,12.95
2023-04-27T05:57:20.796Z,12.77
2023-04-27T05:59:50.402Z,13.55
2023-04-27T06:02:18.062Z,11.17
2023-04-27T06:04:45.931Z,13.23
2023-04-27T06:07:16.164Z,10.98
2023-04-27T06:09:43.854Z,13.23
2023-04-27T06:12:11.421Z,11.80
2023-04-27T06:14:38.867Z,12.93
2023-04-27T06:17:07.662Z,9.15
2023-04-27T06:19:35.163Z,10.00
2023-04-27T06:22:03.928Z,10.57
2023-04-27T06:24:31.260Z,10.07
2023-04-27T06:26:58.722Z,10.77
2023-04-27T06:29:25.936Z,9.18
2023-04-27T06:31:53.457Z,9.15
2023-04-27T06:34:22.084Z,9.75
2023-04-27T06:36:49.427Z,8.98
2023-04-27T06:39:16.910Z,9.57
2023-04-27T06:41:44.405Z,9.52
2023-04-27T06:44:12.005Z,8.05
2023-04-27T06:46:39.704Z,7.90
2023-04-27T06:49:09.210Z,15.82
2023-04-27T06:51:37.926Z,8.17
2023-04-27T06:54:06.116Z,7.63
2023-04-27T06:56:34.180Z,7.20
2023-04-27T06:59:02.371Z,7.40
2023-04-27T07:01:30.409Z,11.23
2023-04-27T07:04:00.962Z,7.27
2023-04-27T07:06:28.860Z,8.32
2023-04-27T07:09:29.248Z,7.25
2023-04-27T07:12:03.335Z,7.55
2023-04-27T07:14:30.677Z,8.93
2023-04-27T07:16:58.007Z,6.40
2023-04-27T07:19:25.643Z,6.97
2023-04-27T07:21:52.988Z,7.53
2023-04-27T07:24:20.755Z,8.27
2023-04-27T07:26:50.006Z,7.60
2023-04-27T07:29:26.613Z,7.27
2023-04-27T07:31:55.917Z,7.70
2023-04-27T07:34:38.003Z,8.93
2023-04-27T07:37:14.009Z,7.25
2023-04-27T07:39:42.597Z,7.22
2023-04-27T07:42:13.938Z,6.47
2023-04-27T07:44:50.962Z,7.85
2023-04-27T07:47:20.893Z,6.88
2023-04-27T07:49:49.425Z,8.32
2023-04-27T07:52:23.023Z,9.30
2023-04-27T07:54:57.270Z,8.47
2023-04-27T07:57:32.993Z,5.93
2023-04-27T08:00:00.596Z,8.00
2023-04-27T08:02:39.444Z,6.03
2023-04-27T08:05:08.274Z,5.95
2023-04-27T08:07:50.399Z,7.30
2023-04-27T08:10:20.647Z,6.55
2023-04-27T08:13:06.798Z,5.32
2023-04-27T08:15:38.593Z,7.05
2023-04-27T08:18:10.417Z,8.13
2023-04-27T08:21:44.126Z,7.00
2023-04-27T08:24:02.809Z,7.80
2023-04-27T08:26:31.207Z,6.97
2023-04-27T08:29:15.322Z,6.90
2023-04-27T08:32:04.369Z,5.90
2023-04-27T08:34:39.429Z,6.93
2023-04-27T08:37:32.868Z,6.47
2023-04-27T08:40:03.496Z,6.82
2023-04-27T08:42:31.573Z,10.23
2023-04-27T08:45:00.497Z,7.45
2023-04-27T08:47:39.133Z,5.37
2023-04-27T08:50:10.729Z,6.68
2023-04-27T08:52:43.796Z,7.55
2023-04-27T08:55:11.179Z,7.00
2023-04-27T08:57:38.898Z,5.20
2023-04-27T09:00:13.454Z,6.33
2023-04-27T09:02:47.643Z,5.97
2023-04-27T09:05:18.573Z,5.55
2023-04-27T09:07:59.284Z,10.40
2023-04-27T09:10:29.554Z,6.70
2023-04-27T09:12:59.087Z,8.67
2023-04-27T09:15:31.804Z,5.35
2023-04-27T09:18:00.436Z,10.10
2023-04-27T09:20:31.474Z,8.32
2023-04-27T09:23:01.674Z,7.72
2023-04-27T09:25:35.843Z,6.57
2023-04-27T09:28:10.454Z,8.00
2023-04-27T09:30:39.131Z,8.50
2023-04-27T09:33:06.587Z,6.28
2023-04-27T09:35:34.091Z,7.15
2023-04-27T09:38:01.654Z,9.27
2023-04-27T09:40:31.255Z,5.70
2023-04-27T09:43:01.219Z,6.15
2023-04-27T09:45:28.687Z,7.18
2023-04-27T09:47:58.515Z,5.60
2023-04-27T09:50:26.407Z,6.70
2023-04-27T09:52:53.984Z,9.07
2023-04-27T09:55:26.151Z,7.00
2023-04-27T09:58:03.817Z,6.13
2023-04-27T10:00:42.936Z,6.75
2023-04-27T10:03:23.846Z,5.87
2023-04-27T10:06:40.875Z,5.85
2023-04-27T10:09:10.462Z,5.85
2023-04-27T10:11:44.133Z,6.95
2023-04-27T10:14:18.355Z,5.82
2023-04-27T10:16:47.335Z,6.73
2023-04-27T10:19:16.756Z,6.93
2023-04-27T10:22:00.459Z,8.02
2023-04-27T10:24:37.809Z,8.35
2023-04-27T10:27:12.461Z,7.22
2023-04-27T10:29:42.139Z,5.90
2023-04-27T10:32:11.618Z,8.57
2023-04-27T10:34:41.437Z,39.63
2023-04-27T10:37:10.382Z,7.85
2023-04-27T10:39:47.847Z,8.68
2023-04-27T10:42:29.118Z,10.27
2023-04-27T10:44:58.071Z,8.82
2023-04-27T10:47:36.140Z,8.25
2023-04-27T10:50:06.628Z,7.10
2023-04-27T10:52:34.501Z,7.10
2023-04-27T10:55:13.531Z,7.30
2023-04-27T10:57:47.267Z,6.53
2023-04-27T11:00:19.008Z,8.98
2023-04-27T11:02:59.058Z,6.90
2023-04-27T11:05:33.587Z,6.47
2023-04-27T11:08:08.466Z,8.70
2023-04-27T11:10:39.708Z,7.25
2023-04-27T11:13:12.540Z,6.28
2023-04-27T11:15:48.007Z,8.77
2023-04-27T11:18:17.358Z,9.27
2023-04-27T11:20:48.561Z,7.53
2023-04-27T11:23:24.323Z,6.22
2023-04-27T11:25:52.473Z,5.55
2023-04-27T11:28:22.534Z,6.85
2023-04-27T11:30:56.455Z,8.88
2023-04-27T11:33:24.060Z,7.17
2023-04-27T11:35:56.863Z,7.40
2023-04-27T11:38:24.540Z,7.35
2023-04-27T11:41:00.916Z,7.05
2023-04-27T11:43:28.846Z,7.20
2023-04-27T11:45:56.492Z,8.33
2023-04-27T11:48:24.427Z,6.78
2023-04-27T11:50:53.603Z,6.60
2023-04-27T11:53:31.132Z,8.32
2023-04-27T11:56:00.284Z,6.53
2023-04-27T11:58:28.220Z,6.57
2023-04-27T12:00:57.049Z,7.40
2023-04-27T12:03:26.240Z,6.72
2023-04-27T12:05:55.981Z,6.88
2023-04-27T12:08:24.418Z,6.90
2023-04-27T12:10:52.064Z,6.17
2023-04-27T12:13:27.902Z,9.18
2023-04-27T12:15:55.197Z,7.95
2023-04-27T12:18:22.592Z,7.07
2023-04-27T12:20:50.616Z,8.18
2023-04-27T12:23:19.448Z,7.50
2023-04-27T12:25:46.744Z,6.80
2023-04-27T12:28:19.133Z,7.50
2023-04-27T12:30:46.598Z,7.38
2023-04-27T12:33:14.079Z,7.75
2023-04-27T12:35:41.419Z,7.57
2023-04-27T12:38:09.759Z,7.22
2023-04-27T12:40:38.561Z,6.68
2023-04-27T12:43:07.673Z,6.18
2023-04-27T12:45:34.968Z,9.13
2023-04-27T12:48:04.287Z,6.63
2023-04-27T12:50:32.760Z,6.03
2023-04-27T12:53:00.506Z,7.18
2023-04-27T12:57:59.442Z,6.40
2023-04-27T13:00:26.946Z,5.53
2023-04-27T13:02:54.520Z,5.88
2023-04-27T13:05:22.468Z,9.02
2023-04-27T13:07:53.847Z,7.53
2023-04-27T13:10:22.240Z,6.75
2023-04-27T13:12:49.831Z,8.20
2023-04-27T13:15:18.848Z,8.63
2023-04-27T13:17:46.380Z,6.55
2023-04-27T13:20:13.832Z,7.00
2023-04-27T13:22:42.565Z,8.32
2023-04-27T13:25:10.843Z,7.60
2023-04-27T13:27:38.153Z,7.80
2023-04-27T13:30:10.226Z,8.13
2023-04-27T13:32:39.444Z,7.65
2023-04-27T13:35:08.802Z,6.00
2023-04-27T13:37:38.015Z,6.33
2023-04-27T13:40:06.761Z,7.28
2023-04-27T13:42:35.170Z,5.97
2023-04-27T13:45:04.404Z,7.07
2023-04-27T13:47:37.319Z,6.47
2023-04-27T13:50:09.146Z,7.13
2023-04-27T13:52:38.329Z,7.68
2023-04-27T13:55:07.125Z,8.88
2023-04-27T13:57:34.772Z,61.55
2023-04-27T14:00:02.753Z,7.85
2023-04-27T14:02:31.197Z,8.17
2023-04-27T14:04:58.733Z,10.65
2023-04-27T14:07:27.988Z,7.53
2023-04-27T14:09:55.198Z,8.15
2023-04-27T14:12:22.627Z,7.63
2023-04-27T14:14:49.895Z,9.90
2023-04-27T14:17:17.117Z,6.70
2023-04-27T14:19:44.429Z,8.45
2023-04-27T14:22:12.727Z,7.43
2023-04-27T14:24:41.534Z,7.00
2023-04-27T14:27:08.834Z,8.43
2023-04-27T14:29:36.138Z,5.50
2023-04-27T14:32:04.218Z,7.13
2023-04-27T14:34:31.447Z,6.72
2023-04-27T14:36:58.717Z,9.77
2023-04-27T14:39:28.161Z,8.93
2023-04-27T14:41:57.352Z,8.18
2023-04-27T14:44:24.913Z,7.22
2023-04-27T14:46:52.127Z,8.82
2023-04-27T14:49:19.871Z,7.38
2023-04-27T14:51:47.173Z,7.23
2023-04-27T14:54:14.783Z,7.78
2023-04-27T14:56:42.659Z,7.03
2023-04-27T14:59:11.451Z,6.28
2023-04-27T15:01:38.717Z,6.43
2023-04-27T15:04:06.423Z,7.03
2023-04-27T15:06:33.945Z,6.85
2023-04-27T15:09:01.218Z,6.18
2023-04-27T15:11:28.506Z,6.90
2023-04-27T15:13:56.205Z,6.93
2023-04-27T15:16:25.050Z,5.83
2023-04-27T15:18:52.263Z,8.30
2023-04-27T15:21:19.526Z,6.15
2023-04-27T15:23:46.727Z,6.75
2023-04-27T15:26:14.317Z,5.63
2023-04-27T15:28:41.792Z,7.87
2023-04-27T15:31:09.363Z,8.30
2023-04-27T15:33:38.069Z,9.52
2023-04-27T15:36:05.956Z,6.65
2023-04-27T15:38:33.986Z,8.13
2023-04-27T15:41:01.664Z,11.37
2023-04-27T15:43:29.052Z,9.68
2023-04-27T15:45:56.446Z,11.18
2023-04-27T15:48:23.617Z,7.18
2023-04-27T15:50:52.427Z,7.93
2023-04-27T15:53:19.779Z,9.73
2023-04-27T15:55:47.035Z,6.03
2023-04-27T15:58:15.232Z,6.10
2023-04-27T16:00:42.534Z,8.70
2023-04-27T16:03:11.392Z,12.82
2023-04-27T16:05:39.003Z,58.37
2023-04-27T16:08:07.656Z,118.10
2023-04-27T16:10:35.067Z,117.00
2023-04-27T16:13:02.374Z,51.75
2023-04-27T16:15:29.772Z,9.93
2023-04-27T16:17:57.144Z,7.07
2023-04-27T16:20:25.587Z,8.35
2023-04-27T16:22:53.230Z,7.63
2023-04-27T16:25:22.244Z,6.47
2023-04-27T16:27:49.471Z,7.63
2023-04-27T16:30:16.746Z,8.03
2023-04-27T16:32:43.998Z,7.35
2023-04-27T16:35:11.341Z,7.43
2023-04-27T16:37:38.762Z,8.05
2023-04-27T16:40:08.475Z,7.10
2023-04-27T16:42:37.529Z,8.33
2023-04-27T16:45:08.389Z,8.25
2023-04-27T16:47:37.668Z,10.70
2023-04-27T16:50:05.543Z,9.10
2023-04-27T16:52:32.824Z,7.72
2023-04-27T16:55:00.044Z,7.43
2023-04-27T16:57:27.298Z,7.55
2023-04-27T16:59:56.417Z,8.70
2023-04-27T17:02:26.004Z,8.43
2023-04-27T17:04:54.081Z,7.28
2023-04-27T17:07:21.433Z,7.63
2023-04-27T17:09:48.779Z,9.10
2023-04-27T17:12:16.900Z,10.70
2023-04-27T17:14:44.478Z,9.95
2023-04-27T17:17:13.134Z,11.75
2023-04-27T17:19:40.889Z,10.57
2023-04-27T17:22:13.464Z,11.13
2023-04-27T17:24:41.023Z,10.20
2023-04-27T17:27:08.300Z,11.23
2023-04-27T17:29:35.686Z,11.70
2023-04-27T17:32:09.438Z,16.43
2023-04-27T17:37:05.984Z,14.60
2023-04-27T17:39:33.281Z,9.60
2023-04-27T17:42:00.683Z,10.57
2023-04-27T17:44:28.776Z,12.10
2023-04-27T17:46:56.421Z,9.73
2023-04-27T17:49:23.896Z,12.00
2023-04-27T17:51:52.540Z,15.02
2023-04-27T17:54:19.913Z,10.57
2023-04-27T17:56:47.432Z,10.53
2023-04-27T17:59:14.872Z,12.27
2023-04-27T18:01:42.574Z,17.20
2023-04-27T18:04:10.469Z,14.52
2023-04-27T18:06:37.819Z,16.88
2023-04-27T18:09:06.942Z,15.67
2023-04-27T18:11:34.516Z,17.17
2023-04-27T18:14:01.971Z,18.08
2023-04-27T18:16:29.515Z,18.08
2023-04-27T18:18:56.745Z,17.92
2023-04-27T18:21:26.673Z,19.37
2023-04-27T18:23:53.936Z,21.65
2023-04-27T18:26:22.896Z,22.65
2023-04-27T18:28:50.922Z,24.33
2023-04-27T18:31:19.493Z,22.20
2023-04-27T18:33:47.226Z,22.53
2023-04-27T18:36:14.874Z,23.45
2023-04-27T18:38:42.208Z,28.58
2023-04-27T18:41:09.877Z,25.00
2023-04-27T18:43:38.700Z,28.05
2023-04-27T18:46:06.290Z,23.80
2023-04-27T18:48:33.825Z,27.88
2023-04-27T18:51:01.103Z,24.85
2023-04-27T18:53:28.730Z,26.98
2023-04-27T18:55:56.152Z,24.38
2023-04-27T18:58:23.842Z,21.90
2023-04-27T19:00:52.768Z,17.30
2023-04-27T19:03:20.546Z,18.80
2023-04-27T19:05:48.071Z,18.25
2023-04-27T19:08:15.818Z,15.40
2023-04-27T19:10:43.133Z,11.40
2023-04-27T19:13:10.423Z,13.73
2023-04-27T19:15:37.752Z,15.40
2023-04-27T19:18:11.347Z,21.17
2023-04-27T19:20:39.753Z,24.67
2023-04-27T19:23:09.599Z,23.30
2023-04-27T19:25:37.468Z,24.83
2023-04-27T19:28:05.895Z,20.67
2023-04-27T19:30:33.664Z,23.10
2023-04-27T19:33:01.557Z,25.58
2023-04-27T19:35:30.694Z,29.87
2023-04-27T19:37:57.988Z,24.85
2023-04-27T19:40:25.994Z,31.00
2023-04-27T19:42:53.337Z,37.53
2023-04-27T19:45:22.333Z,36.83
2023-04-27T19:47:49.928Z,39.73
2023-04-27T19:50:17.995Z,39.80
2023-04-27T19:52:47.064Z,44.63
2023-04-27T19:55:14.267Z,42.42
2023-04-27T19:57:41.622Z,30.60
2023-04-27T20:00:11.817Z,22.10
2023-04-27T20:02:39.207Z,18.50
2023-04-27T20:05:07.490Z,15.00
2023-04-27T20:07:34.957Z,19.70
2023-04-27T20:10:04.719Z,25.48
2023-04-27T20:12:47.980Z,20.83
2023-04-27T20:15:19.450Z,14.38
2023-04-27T20:17:46.770Z,18.02
2023-04-27T20:20:14.071Z,18.20
2023-04-27T20:22:41.427Z,16.42
2023-04-27T20:25:10.722Z,15.87
2023-04-27T20:27:38.242Z,19.23
2023-04-27T20:30:06.731Z,16.88
2023-04-27T20:32:34.122Z,20.50
2023-04-27T20:35:02.607Z,21.75
2023-04-27T20:37:30.096Z,20.10
2023-04-27T20:39:58.003Z,24.70
2023-04-27T20:42:27.386Z,23.80
2023-04-27T20:44:54.983Z,21.02
2023-04-27T20:47:22.701Z,21.92
2023-04-27T20:49:50.421Z,23.97
2023-04-27T20:52:17.824Z,18.10
2023-04-27T20:54:45.329Z,16.10
2023-04-27T20:57:14.347Z,16.27
2023-04-27T20:59:43.502Z,13.43
2023-04-27T21:02:10.819Z,12.97
2023-04-27T21:04:38.308Z,10.70
2023-04-27T21:07:06.111Z,11.98
2023-04-27T21:09:33.426Z,11.85
2023-04-27T21:12:00.788Z,11.32
2023-04-27T21:14:28.063Z,11.27
2023-04-27T21:16:56.928Z,10.75
2023-04-27T21:19:24.187Z,10.07
2023-04-27T21:21:51.638Z,11.18
2023-04-27T21:24:19.928Z,8.93
2023-04-27T21:26:47.259Z,10.07
2023-04-27T21:29:14.714Z,10.45
2023-04-27T21:31:42.054Z,9.98
2023-04-27T21:34:10.819Z,8.82
2023-04-27T21:36:38.158Z,8.27
2023-04-27T21:39:06.683Z,9.13
2023-04-27T21:41:35.080Z,9.60
2023-04-27T21:44:02.580Z,9.07
2023-04-27T21:46:29.974Z,9.93
2023-04-27T21:48:57.292Z,8.93
2023-04-27T21:51:26.472Z,8.57
2023-04-27T21:53:54.051Z,8.18
2023-04-27T21:56:21.333Z,9.00
2023-04-27T21:58:48.960Z,12.73
2023-04-27T22:01:16.564Z,12.60
2023-04-27T22:03:44.045Z,11.30
2023-04-27T22:06:11.717Z,12.52
2023-04-27T22:08:40.602Z,12.02
2023-04-27T22:11:08.037Z,14.02
2023-04-27T22:13:35.523Z,12.27
2023-04-27T22:16:02.844Z,10.80
2023-04-27T22:18:30.129Z,11.85
2023-04-27T22:20:58.320Z,13.43
2023-04-27T22:23:26.598Z,12.88
2023-04-27T22:25:55.217Z,12.98
2023-04-27T22:28:23.014Z,11.73
2023-04-27T22:30:50.475Z,13.02
2023-04-27T22:33:18.472Z,12.00
2023-04-27T22:35:46.147Z,13.88
2023-04-27T22:38:13.617Z,12.32
2023-04-27T22:40:41.239Z,13.90
2023-04-27T22:43:10.080Z,12.70
2023-04-27T22:45:38.846Z,15.57
2023-04-27T22:48:07.196Z,14.95
2023-04-27T22:50:34.790Z,15.30
2023-04-27T22:53:02.268Z,11.70
2023-04-27T22:55:29.834Z,9.32
2023-04-27T22:57:57.036Z,10.32
2023-04-27T23:00:26.394Z,9.38
2023-04-27T23:02:53.709Z,8.55
2023-04-27T23:05:21.287Z,9.53
2023-04-27T23:07:50.746Z,11.50
2023-04-27T23:10:19.043Z,10.20
2023-04-27T23:12:46.422Z,10.20
2023-04-27T23:15:13.786Z,12.30
2023-04-27T23:17:42.401Z,10.17
2023-04-27T23:20:26.704Z,13.40
2023-04-27T23:22:56.267Z,14.25
2023-04-27T23:25:23.795Z,13.32
2023-04-27T23:27:52.584Z,13.10
2023-04-27T23:30:21.682Z,13.43
2023-04-27T23:32:50.710Z,11.25
2023-04-27T23:35:18.314Z,11.07
2023-04-27T23:37:45.685Z,11.20
2023-04-27T23:40:13.301Z,11.77
2023-04-27T23:42:40.515Z,11.63
2023-04-27T23:45:08.605Z,10.05
2023-04-27T23:47:35.876Z,11.10
2023-04-27T23:50:05.372Z,10.32
2023-04-27T23:52:32.686Z,10.43
2023-04-27T23:55:00.057Z,11.97
2023-04-27T23:57:27.313Z,11.05
2023-04-27T23:59:54.584Z,11.18
